sensor_id;sensor_type;location;lat;lon;timestamp;P1;durP1;ratioP1;P2;durP2;ratioP2
43986;SDS011;29650;47.378;8.300;2022-11-20T00:01:09;5.25;;;1.65;;
43986;SDS011;29650;47.378;8.300;2022-11-20T00:03:37;12.43;;;1.35;;
43986;SDS011;29650;47.378;8.300;2022-11-20T00:06:06;3.65;;;1.92;;
43986;SDS011;29650;47.378;8.300;2022-11-20T00:08:34;1.92;;;1.45;;
43986;SDS011;29650;47.378;8.300;2022-11-20T00:11:04;1.15;;;0.98;;
43986;SDS011;29650;47.378;8.300;2022-11-20T00:13:32;1.38;;;1.20;;
43986;SDS011;29650;47.378;8.300;2022-11-20T00:16:00;1.40;;;1.15;;
43986;SDS011;29650;47.378;8.300;2022-11-20T00:18:28;1.45;;;0.90;;
43986;SDS011;29650;47.378;8.300;2022-11-20T00:21:00;1.85;;;1.00;;
43986;SDS011;29650;47.378;8.300;2022-11-20T00:23:29;1.20;;;1.00;;
43986;SDS011;29650;47.378;8.300;2022-11-20T00:25:56;3.15;;;1.23;;
43986;SDS011;29650;47.378;8.300;2022-11-20T00:28:26;1.92;;;1.10;;
43986;SDS011;29650;47.378;8.300;2022-11-20T00:30:59;2.15;;;1.00;;
43986;SDS011;29650;47.378;8.300;2022-11-20T00:33:27;3.92;;;1.42;;
43986;SDS011;29650;47.378;8.300;2022-11-20T00:35:58;2.38;;;1.10;;
43986;SDS011;29650;47.378;8.300;2022-11-20T00:38:26;0.98;;;0.70;;
43986;SDS011;29650;47.378;8.300;2022-11-20T00:40:55;0.98;;;0.80;;
43986;SDS011;29650;47.378;8.300;2022-11-20T00:43:23;2.72;;;1.38;;
43986;SDS011;29650;47.378;8.300;2022-11-20T00:45:50;1.02;;;0.93;;
43986;SDS011;29650;47.378;8.300;2022-11-20T00:48:17;1.20;;;1.10;;
43986;SDS011;29650;47.378;8.300;2022-11-20T00:50:44;1.42;;;1.33;;
43986;SDS011;29650;47.378;8.300;2022-11-20T00:53:10;1.83;;;1.08;;
43986;SDS011;29650;47.378;8.300;2022-11-20T00:55:37;1.60;;;1.23;;
43986;SDS011;29650;47.378;8.300;2022-11-20T00:58:06;1.98;;;1.73;;
43986;SDS011;29650;47.378;8.300;2022-11-20T01:00:33;4.22;;;1.10;;
43986;SDS011;29650;47.378;8.300;2022-11-20T01:03:00;1.35;;;1.05;;
43986;SDS011;29650;47.378;8.300;2022-11-20T01:05:27;2.97;;;1.55;;
43986;SDS011;29650;47.378;8.300;2022-11-20T01:07:54;3.53;;;1.52;;
43986;SDS011;29650;47.378;8.300;2022-11-20T01:10:20;2.35;;;1.92;;
43986;SDS011;29650;47.378;8.300;2022-11-20T01:12:47;1.63;;;1.13;;
43986;SDS011;29650;47.378;8.300;2022-11-20T01:15:36;1.50;;;1.00;;
43986;SDS011;29650;47.378;8.300;2022-11-20T01:18:03;2.97;;;1.00;;
43986;SDS011;29650;47.378;8.300;2022-11-20T01:20:30;2.05;;;1.42;;
43986;SDS011;29650;47.378;8.300;2022-11-20T01:23:00;3.20;;;1.52;;
43986;SDS011;29650;47.378;8.300;2022-11-20T01:25:26;1.33;;;0.95;;
43986;SDS011;29650;47.378;8.300;2022-11-20T01:27:53;4.78;;;1.38;;
43986;SDS011;29650;47.378;8.300;2022-11-20T01:30:20;2.33;;;1.30;;
43986;SDS011;29650;47.378;8.300;2022-11-20T01:32:49;1.90;;;1.15;;
43986;SDS011;29650;47.378;8.300;2022-11-20T01:35:16;1.50;;;1.40;;
43986;SDS011;29650;47.378;8.300;2022-11-20T01:37:43;3.63;;;1.55;;
43986;SDS011;29650;47.378;8.300;2022-11-20T01:40:10;3.13;;;1.58;;
43986;SDS011;29650;47.378;8.300;2022-11-20T01:42:37;3.45;;;1.60;;
43986;SDS011;29650;47.378;8.300;2022-11-20T01:48:18;3.03;;;1.50;;
43986;SDS011;29650;47.378;8.300;2022-11-20T01:50:48;2.92;;;1.30;;
43986;SDS011;29650;47.378;8.300;2022-11-20T01:53:17;3.45;;;1.50;;
43986;SDS011;29650;47.378;8.300;2022-11-20T01:55:48;5.63;;;1.70;;
43986;SDS011;29650;47.378;8.300;2022-11-20T01:58:22;5.53;;;1.40;;
43986;SDS011;29650;47.378;8.300;2022-11-20T02:00:54;5.10;;;1.40;;
43986;SDS011;29650;47.378;8.300;2022-11-20T02:03:23;2.63;;;1.35;;
43986;SDS011;29650;47.378;8.300;2022-11-20T02:05:51;2.45;;;1.25;;
43986;SDS011;29650;47.378;8.300;2022-11-20T02:08:21;6.47;;;1.58;;
43986;SDS011;29650;47.378;8.300;2022-11-20T02:10:50;5.20;;;1.42;;
43986;SDS011;29650;47.378;8.300;2022-11-20T02:13:16;2.33;;;1.60;;
43986;SDS011;29650;47.378;8.300;2022-11-20T02:16:01;2.28;;;1.48;;
43986;SDS011;29650;47.378;8.300;2022-11-20T02:18:30;3.45;;;1.67;;
43986;SDS011;29650;47.378;8.300;2022-11-20T02:20:58;2.63;;;1.75;;
43986;SDS011;29650;47.378;8.300;2022-11-20T02:23:32;1.40;;;1.08;;
43986;SDS011;29650;47.378;8.300;2022-11-20T02:26:04;2.80;;;1.25;;
43986;SDS011;29650;47.378;8.300;2022-11-20T02:28:33;1.20;;;0.90;;
43986;SDS011;29650;47.378;8.300;2022-11-20T02:31:00;1.70;;;1.45;;
43986;SDS011;29650;47.378;8.300;2022-11-20T02:33:27;2.88;;;1.35;;
43986;SDS011;29650;47.378;8.300;2022-11-20T02:35:54;1.40;;;1.17;;
43986;SDS011;29650;47.378;8.300;2022-11-20T02:38:21;3.10;;;1.55;;
43986;SDS011;29650;47.378;8.300;2022-11-20T02:40:48;1.38;;;1.02;;
43986;SDS011;29650;47.378;8.300;2022-11-20T02:43:17;1.73;;;1.02;;
43986;SDS011;29650;47.378;8.300;2022-11-20T02:45:44;3.72;;;1.60;;
43986;SDS011;29650;47.378;8.300;2022-11-20T02:48:10;3.40;;;1.20;;
43986;SDS011;29650;47.378;8.300;2022-11-20T02:50:38;1.15;;;0.98;;
43986;SDS011;29650;47.378;8.300;2022-11-20T02:53:06;2.50;;;1.15;;
43986;SDS011;29650;47.378;8.300;2022-11-20T02:55:33;4.20;;;1.73;;
43986;SDS011;29650;47.378;8.300;2022-11-20T02:58:00;1.15;;;0.85;;
43986;SDS011;29650;47.378;8.300;2022-11-20T03:00:28;1.20;;;1.10;;
43986;SDS011;29650;47.378;8.300;2022-11-20T03:02:55;2.10;;;1.73;;
43986;SDS011;29650;47.378;8.300;2022-11-20T03:05:22;2.65;;;1.83;;
43986;SDS011;29650;47.378;8.300;2022-11-20T03:07:49;1.30;;;0.98;;
43986;SDS011;29650;47.378;8.300;2022-11-20T03:10:16;3.80;;;1.60;;
43986;SDS011;29650;47.378;8.300;2022-11-20T03:12:43;1.50;;;1.40;;
43986;SDS011;29650;47.378;8.300;2022-11-20T03:15:10;4.13;;;1.35;;
43986;SDS011;29650;47.378;8.300;2022-11-20T03:17:38;1.15;;;1.02;;
43986;SDS011;29650;47.378;8.300;2022-11-20T03:20:06;2.53;;;1.33;;
43986;SDS011;29650;47.378;8.300;2022-11-20T03:22:34;1.40;;;1.30;;
43986;SDS011;29650;47.378;8.300;2022-11-20T03:25:01;1.55;;;1.25;;
43986;SDS011;29650;47.378;8.300;2022-11-20T03:27:31;1.77;;;1.40;;
43986;SDS011;29650;47.378;8.300;2022-11-20T03:29:58;1.55;;;1.40;;
43986;SDS011;29650;47.378;8.300;2022-11-20T03:32:25;2.28;;;1.30;;
43986;SDS011;29650;47.378;8.300;2022-11-20T03:34:53;2.00;;;1.13;;
43986;SDS011;29650;47.378;8.300;2022-11-20T03:37:20;1.20;;;1.13;;
43986;SDS011;29650;47.378;8.300;2022-11-20T03:39:47;3.10;;;1.67;;
43986;SDS011;29650;47.378;8.300;2022-11-20T03:42:14;1.95;;;1.10;;
43986;SDS011;29650;47.378;8.300;2022-11-20T03:44:55;2.25;;;1.45;;
43986;SDS011;29650;47.378;8.300;2022-11-20T03:47:22;4.60;;;1.30;;
43986;SDS011;29650;47.378;8.300;2022-11-20T03:49:49;2.22;;;1.23;;
43986;SDS011;29650;47.378;8.300;2022-11-20T03:52:17;2.13;;;1.27;;
43986;SDS011;29650;47.378;8.300;2022-11-20T03:54:44;1.23;;;0.95;;
43986;SDS011;29650;47.378;8.300;2022-11-20T03:57:11;2.55;;;0.98;;
43986;SDS011;29650;47.378;8.300;2022-11-20T03:59:38;2.67;;;0.90;;
43986;SDS011;29650;47.378;8.300;2022-11-20T04:02:05;1.42;;;1.08;;
43986;SDS011;29650;47.378;8.300;2022-11-20T04:04:31;1.70;;;1.25;;
43986;SDS011;29650;47.378;8.300;2022-11-20T04:06:58;2.75;;;1.65;;
43986;SDS011;29650;47.378;8.300;2022-11-20T04:09:27;2.67;;;1.45;;
43986;SDS011;29650;47.378;8.300;2022-11-20T04:11:53;1.60;;;1.20;;
43986;SDS011;29650;47.378;8.300;2022-11-20T04:14:20;2.97;;;1.35;;
43986;SDS011;29650;47.378;8.300;2022-11-20T04:16:47;2.97;;;1.10;;
43986;SDS011;29650;47.378;8.300;2022-11-20T04:19:15;1.17;;;1.00;;
43986;SDS011;29650;47.378;8.300;2022-11-20T04:21:42;2.25;;;1.50;;
43986;SDS011;29650;47.378;8.300;2022-11-20T04:24:10;1.77;;;1.40;;
43986;SDS011;29650;47.378;8.300;2022-11-20T04:26:38;1.15;;;1.08;;
43986;SDS011;29650;47.378;8.300;2022-11-20T04:29:06;4.32;;;1.40;;
43986;SDS011;29650;47.378;8.300;2022-11-20T04:31:36;2.08;;;1.50;;
43986;SDS011;29650;47.378;8.300;2022-11-20T04:34:03;2.05;;;1.55;;
43986;SDS011;29650;47.378;8.300;2022-11-20T04:36:32;1.38;;;1.08;;
43986;SDS011;29650;47.378;8.300;2022-11-20T04:39:00;1.85;;;1.10;;
43986;SDS011;29650;47.378;8.300;2022-11-20T04:41:29;3.95;;;0.90;;
43986;SDS011;29650;47.378;8.300;2022-11-20T04:43:59;1.42;;;1.05;;
43986;SDS011;29650;47.378;8.300;2022-11-20T04:46:28;3.55;;;1.25;;
43986;SDS011;29650;47.378;8.300;2022-11-20T04:48:55;0.85;;;0.80;;
43986;SDS011;29650;47.378;8.300;2022-11-20T04:51:23;1.73;;;1.05;;
43986;SDS011;29650;47.378;8.300;2022-11-20T04:53:50;2.15;;;1.08;;
43986;SDS011;29650;47.378;8.300;2022-11-20T04:56:17;1.30;;;0.80;;
43986;SDS011;29650;47.378;8.300;2022-11-20T04:58:43;1.65;;;1.02;;
43986;SDS011;29650;47.378;8.300;2022-11-20T05:01:16;1.42;;;0.90;;
43986;SDS011;29650;47.378;8.300;2022-11-20T05:03:44;3.50;;;1.10;;
43986;SDS011;29650;47.378;8.300;2022-11-20T05:06:12;0.70;;;0.70;;
43986;SDS011;29650;47.378;8.300;2022-11-20T05:08:41;1.58;;;0.73;;
43986;SDS011;29650;47.378;8.300;2022-11-20T05:11:09;13.65;;;1.08;;
43986;SDS011;29650;47.378;8.300;2022-11-20T05:13:36;1.37;;;0.50;;
43986;SDS011;29650;47.378;8.300;2022-11-20T05:16:05;1.30;;;0.70;;
43986;SDS011;29650;47.378;8.300;2022-11-20T05:18:34;1.30;;;0.90;;
43986;SDS011;29650;47.378;8.300;2022-11-20T05:21:03;2.10;;;1.13;;
43986;SDS011;29650;47.378;8.300;2022-11-20T05:23:30;0.98;;;0.60;;
43986;SDS011;29650;47.378;8.300;2022-11-20T05:25:58;0.82;;;0.82;;
43986;SDS011;29650;47.378;8.300;2022-11-20T05:28:25;1.30;;;0.88;;
43986;SDS011;29650;47.378;8.300;2022-11-20T05:30:53;0.75;;;0.57;;
43986;SDS011;29650;47.378;8.300;2022-11-20T05:33:20;3.97;;;0.82;;
43986;SDS011;29650;47.378;8.300;2022-11-20T05:35:49;1.08;;;0.73;;
43986;SDS011;29650;47.378;8.300;2022-11-20T05:38:15;1.05;;;0.95;;
43986;SDS011;29650;47.378;8.300;2022-11-20T05:40:42;1.60;;;0.95;;
43986;SDS011;29650;47.378;8.300;2022-11-20T05:43:09;3.28;;;1.15;;
43986;SDS011;29650;47.378;8.300;2022-11-20T05:45:36;1.63;;;1.08;;
43986;SDS011;29650;47.378;8.300;2022-11-20T05:48:03;1.65;;;0.57;;
43986;SDS011;29650;47.378;8.300;2022-11-20T05:50:30;0.95;;;0.60;;
43986;SDS011;29650;47.378;8.300;2022-11-20T05:52:59;1.75;;;1.23;;
43986;SDS011;29650;47.378;8.300;2022-11-20T05:55:26;1.02;;;0.73;;
43986;SDS011;29650;47.378;8.300;2022-11-20T05:57:53;3.00;;;1.15;;
43986;SDS011;29650;47.378;8.300;2022-11-20T06:00:20;1.02;;;1.00;;
43986;SDS011;29650;47.378;8.300;2022-11-20T06:02:47;1.73;;;1.20;;
43986;SDS011;29650;47.378;8.300;2022-11-20T06:05:14;3.65;;;0.82;;
43986;SDS011;29650;47.378;8.300;2022-11-20T06:07:41;1.60;;;1.13;;
43986;SDS011;29650;47.378;8.300;2022-11-20T06:10:10;2.15;;;1.20;;
43986;SDS011;29650;47.378;8.300;2022-11-20T06:12:37;1.08;;;0.98;;
43986;SDS011;29650;47.378;8.300;2022-11-20T06:15:05;2.13;;;1.30;;
43986;SDS011;29650;47.378;8.300;2022-11-20T06:17:32;1.92;;;1.13;;
43986;SDS011;29650;47.378;8.300;2022-11-20T06:19:59;1.67;;;1.35;;
43986;SDS011;29650;47.378;8.300;2022-11-20T06:22:26;2.42;;;1.38;;
43986;SDS011;29650;47.378;8.300;2022-11-20T06:24:53;1.67;;;1.55;;
43986;SDS011;29650;47.378;8.300;2022-11-20T06:27:21;1.20;;;0.80;;
43986;SDS011;29650;47.378;8.300;2022-11-20T06:29:48;0.93;;;0.80;;
43986;SDS011;29650;47.378;8.300;2022-11-20T06:32:15;1.17;;;1.08;;
43986;SDS011;29650;47.378;8.300;2022-11-20T06:34:42;1.60;;;0.98;;
43986;SDS011;29650;47.378;8.300;2022-11-20T06:37:08;1.52;;;0.90;;
43986;SDS011;29650;47.378;8.300;2022-11-20T06:39:35;3.10;;;1.40;;
43986;SDS011;29650;47.378;8.300;2022-11-20T06:42:02;3.22;;;1.50;;
43986;SDS011;29650;47.378;8.300;2022-11-20T06:44:31;3.25;;;1.38;;
43986;SDS011;29650;47.378;8.300;2022-11-20T06:46:57;2.63;;;1.63;;
43986;SDS011;29650;47.378;8.300;2022-11-20T06:49:25;3.05;;;1.38;;
43986;SDS011;29650;47.378;8.300;2022-11-20T06:51:52;2.05;;;1.48;;
43986;SDS011;29650;47.378;8.300;2022-11-20T06:54:19;4.68;;;3.58;;
43986;SDS011;29650;47.378;8.300;2022-11-20T06:56:46;3.80;;;2.20;;
43986;SDS011;29650;47.378;8.300;2022-11-20T06:59:13;4.50;;;2.38;;
43986;SDS011;29650;47.378;8.300;2022-11-20T07:01:42;4.95;;;1.95;;
43986;SDS011;29650;47.378;8.300;2022-11-20T07:04:09;3.60;;;2.00;;
43986;SDS011;29650;47.378;8.300;2022-11-20T07:06:36;3.35;;;1.98;;
43986;SDS011;29650;47.378;8.300;2022-11-20T07:09:03;6.25;;;2.80;;
43986;SDS011;29650;47.378;8.300;2022-11-20T07:11:30;4.15;;;2.55;;
43986;SDS011;29650;47.378;8.300;2022-11-20T07:13:57;11.77;;;3.40;;
43986;SDS011;29650;47.378;8.300;2022-11-20T07:16:23;2.25;;;1.70;;
43986;SDS011;29650;47.378;8.300;2022-11-20T07:18:52;5.60;;;1.80;;
43986;SDS011;29650;47.378;8.300;2022-11-20T07:21:19;3.45;;;1.35;;
43986;SDS011;29650;47.378;8.300;2022-11-20T07:23:46;4.72;;;2.35;;
43986;SDS011;29650;47.378;8.300;2022-11-20T07:26:12;2.42;;;1.80;;
43986;SDS011;29650;47.378;8.300;2022-11-20T07:28:39;2.00;;;1.40;;
43986;SDS011;29650;47.378;8.300;2022-11-20T07:31:06;2.13;;;1.30;;
43986;SDS011;29650;47.378;8.300;2022-11-20T07:33:33;2.10;;;1.20;;
43986;SDS011;29650;47.378;8.300;2022-11-20T07:36:02;2.35;;;1.33;;
43986;SDS011;29650;47.378;8.300;2022-11-20T07:38:29;2.40;;;0.98;;
43986;SDS011;29650;47.378;8.300;2022-11-20T07:40:56;1.60;;;1.10;;
43986;SDS011;29650;47.378;8.300;2022-11-20T07:43:26;3.13;;;1.30;;
43986;SDS011;29650;47.378;8.300;2022-11-20T07:45:54;1.90;;;0.93;;
43986;SDS011;29650;47.378;8.300;2022-11-20T07:48:22;1.10;;;1.00;;
43986;SDS011;29650;47.378;8.300;2022-11-20T07:50:49;0.98;;;0.88;;
43986;SDS011;29650;47.378;8.300;2022-11-20T07:53:17;1.63;;;0.90;;
43986;SDS011;29650;47.378;8.300;2022-11-20T07:55:45;3.90;;;0.95;;
43986;SDS011;29650;47.378;8.300;2022-11-20T07:58:12;0.63;;;0.60;;
43986;SDS011;29650;47.378;8.300;2022-11-20T08:00:40;1.02;;;0.88;;
43986;SDS011;29650;47.378;8.300;2022-11-20T08:03:07;5.75;;;0.93;;
43986;SDS011;29650;47.378;8.300;2022-11-20T08:05:34;1.52;;;0.43;;
43986;SDS011;29650;47.378;8.300;2022-11-20T08:08:02;2.08;;;0.60;;
43986;SDS011;29650;47.378;8.300;2022-11-20T08:10:30;2.45;;;0.70;;
43986;SDS011;29650;47.378;8.300;2022-11-20T08:12:57;0.98;;;0.80;;
43986;SDS011;29650;47.378;8.300;2022-11-20T08:15:47;1.55;;;0.80;;
43986;SDS011;29650;47.378;8.300;2022-11-20T08:18:14;1.63;;;0.65;;
43986;SDS011;29650;47.378;8.300;2022-11-20T08:20:42;1.63;;;0.70;;
43986;SDS011;29650;47.378;8.300;2022-11-20T08:23:09;0.88;;;0.70;;
43986;SDS011;29650;47.378;8.300;2022-11-20T08:25:38;1.80;;;0.80;;
43986;SDS011;29650;47.378;8.300;2022-11-20T08:28:05;1.02;;;0.80;;
43986;SDS011;29650;47.378;8.300;2022-11-20T08:30:34;1.25;;;1.00;;
43986;SDS011;29650;47.378;8.300;2022-11-20T08:33:02;2.20;;;1.10;;
43986;SDS011;29650;47.378;8.300;2022-11-20T08:35:32;0.88;;;0.70;;
43986;SDS011;29650;47.378;8.300;2022-11-20T08:37:59;1.90;;;1.10;;
43986;SDS011;29650;47.378;8.300;2022-11-20T08:40:26;1.48;;;0.90;;
43986;SDS011;29650;47.378;8.300;2022-11-20T08:42:55;0.80;;;0.75;;
43986;SDS011;29650;47.378;8.300;2022-11-20T08:45:21;2.53;;;1.20;;
43986;SDS011;29650;47.378;8.300;2022-11-20T08:47:48;2.28;;;0.88;;
43986;SDS011;29650;47.378;8.300;2022-11-20T08:50:16;1.17;;;0.85;;
43986;SDS011;29650;47.378;8.300;2022-11-20T08:52:43;2.58;;;0.93;;
43986;SDS011;29650;47.378;8.300;2022-11-20T08:55:10;2.38;;;1.48;;
43986;SDS011;29650;47.378;8.300;2022-11-20T08:57:37;1.25;;;1.00;;
43986;SDS011;29650;47.378;8.300;2022-11-20T09:00:07;2.70;;;0.80;;
43986;SDS011;29650;47.378;8.300;2022-11-20T09:02:34;1.00;;;0.90;;
43986;SDS011;29650;47.378;8.300;2022-11-20T09:05:01;0.90;;;0.70;;
43986;SDS011;29650;47.378;8.300;2022-11-20T09:07:29;0.80;;;0.45;;
43986;SDS011;29650;47.378;8.300;2022-11-20T09:09:56;1.15;;;1.00;;
43986;SDS011;29650;47.378;8.300;2022-11-20T09:12:23;0.93;;;0.77;;
43986;SDS011;29650;47.378;8.300;2022-11-20T09:14:50;0.75;;;0.68;;
43986;SDS011;29650;47.378;8.300;2022-11-20T09:17:18;2.30;;;0.88;;
43986;SDS011;29650;47.378;8.300;2022-11-20T09:19:46;1.77;;;0.98;;
43986;SDS011;29650;47.378;8.300;2022-11-20T09:22:13;1.13;;;0.60;;
43986;SDS011;29650;47.378;8.300;2022-11-20T09:24:40;0.73;;;0.68;;
43986;SDS011;29650;47.378;8.300;2022-11-20T09:27:07;2.03;;;0.90;;
43986;SDS011;29650;47.378;8.300;2022-11-20T09:29:34;5.90;;;1.27;;
43986;SDS011;29650;47.378;8.300;2022-11-20T09:32:01;1.58;;;1.02;;
43986;SDS011;29650;47.378;8.300;2022-11-20T09:34:30;3.00;;;1.80;;
43986;SDS011;29650;47.378;8.300;2022-11-20T09:36:56;3.15;;;1.70;;
43986;SDS011;29650;47.378;8.300;2022-11-20T09:39:23;0.95;;;0.80;;
43986;SDS011;29650;47.378;8.300;2022-11-20T09:41:56;1.67;;;0.90;;
43986;SDS011;29650;47.378;8.300;2022-11-20T09:44:40;0.63;;;0.60;;
43986;SDS011;29650;47.378;8.300;2022-11-20T09:47:32;1.75;;;0.50;;
43986;SDS011;29650;47.378;8.300;2022-11-20T09:50:14;2.53;;;0.40;;
43986;SDS011;29650;47.378;8.300;2022-11-20T09:52:51;0.55;;;0.55;;
43986;SDS011;29650;47.378;8.300;2022-11-20T09:55:29;0.57;;;0.50;;
43986;SDS011;29650;47.378;8.300;2022-11-20T09:57:56;0.57;;;0.57;;
43986;SDS011;29650;47.378;8.300;2022-11-20T10:00:25;2.65;;;0.77;;
43986;SDS011;29650;47.378;8.300;2022-11-20T10:02:55;0.63;;;0.45;;
43986;SDS011;29650;47.378;8.300;2022-11-20T10:05:28;0.70;;;0.40;;
43986;SDS011;29650;47.378;8.300;2022-11-20T10:08:03;0.63;;;0.57;;
43986;SDS011;29650;47.378;8.300;2022-11-20T10:10:40;1.17;;;0.50;;
43986;SDS011;29650;47.378;8.300;2022-11-20T10:13:14;0.50;;;0.50;;
43986;SDS011;29650;47.378;8.300;2022-11-20T10:15:54;1.75;;;0.88;;
43986;SDS011;29650;47.378;8.300;2022-11-20T10:18:35;0.40;;;0.40;;
43986;SDS011;29650;47.378;8.300;2022-11-20T10:21:11;0.60;;;0.60;;
43986;SDS011;29650;47.378;8.300;2022-11-20T10:23:50;0.43;;;0.43;;
43986;SDS011;29650;47.378;8.300;2022-11-20T10:26:31;1.05;;;0.50;;
43986;SDS011;29650;47.378;8.300;2022-11-20T10:29:10;5.40;;;1.13;;
43986;SDS011;29650;47.378;8.300;2022-11-20T10:31:40;0.43;;;0.43;;
43986;SDS011;29650;47.378;8.300;2022-11-20T10:34:12;0.90;;;0.50;;
43986;SDS011;29650;47.378;8.300;2022-11-20T10:36:48;4.65;;;0.82;;
43986;SDS011;29650;47.378;8.300;2022-11-20T10:39:22;0.40;;;0.30;;
43986;SDS011;29650;47.378;8.300;2022-11-20T10:41:56;0.75;;;0.60;;
43986;SDS011;29650;47.378;8.300;2022-11-20T10:44:26;0.32;;;0.30;;
43986;SDS011;29650;47.378;8.300;2022-11-20T10:47:12;0.57;;;0.47;;
43986;SDS011;29650;47.378;8.300;2022-11-20T10:49:40;1.52;;;0.70;;
43986;SDS011;29650;47.378;8.300;2022-11-20T10:52:11;0.63;;;0.40;;
43986;SDS011;29650;47.378;8.300;2022-11-20T10:54:46;0.73;;;0.35;;
43986;SDS011;29650;47.378;8.300;2022-11-20T10:57:20;1.25;;;0.60;;
43986;SDS011;29650;47.378;8.300;2022-11-20T11:00:04;1.15;;;0.60;;
43986;SDS011;29650;47.378;8.300;2022-11-20T11:02:39;0.82;;;0.52;;
43986;SDS011;29650;47.378;8.300;2022-11-20T11:05:13;0.40;;;0.40;;
43986;SDS011;29650;47.378;8.300;2022-11-20T11:07:50;1.38;;;0.52;;
43986;SDS011;29650;47.378;8.300;2022-11-20T11:10:28;1.27;;;0.40;;
43986;SDS011;29650;47.378;8.300;2022-11-20T11:13:02;0.55;;;0.50;;
43986;SDS011;29650;47.378;8.300;2022-11-20T11:15:30;2.80;;;0.45;;
43986;SDS011;29650;47.378;8.300;2022-11-20T11:18:04;2.78;;;0.40;;
43986;SDS011;29650;47.378;8.300;2022-11-20T11:20:31;0.30;;;0.30;;
43986;SDS011;29650;47.378;8.300;2022-11-20T11:22:59;0.73;;;0.52;;
43986;SDS011;29650;47.378;8.300;2022-11-20T11:25:28;1.60;;;0.50;;
43986;SDS011;29650;47.378;8.300;2022-11-20T11:27:59;0.38;;;0.38;;
43986;SDS011;29650;47.378;8.300;2022-11-20T11:30:28;0.50;;;0.50;;
43986;SDS011;29650;47.378;8.300;2022-11-20T11:33:03;0.40;;;0.20;;
43986;SDS011;29650;47.378;8.300;2022-11-20T11:35:32;0.52;;;0.32;;
43986;SDS011;29650;47.378;8.300;2022-11-20T11:38:04;3.13;;;0.50;;
43986;SDS011;29650;47.378;8.300;2022-11-20T11:40:34;0.30;;;0.30;;
43986;SDS011;29650;47.378;8.300;2022-11-20T11:43:05;0.52;;;0.30;;
43986;SDS011;29650;47.378;8.300;2022-11-20T11:48:34;0.60;;;0.50;;
43986;SDS011;29650;47.378;8.300;2022-11-20T11:51:01;1.25;;;0.80;;
43986;SDS011;29650;47.378;8.300;2022-11-20T11:53:29;0.40;;;0.40;;
43986;SDS011;29650;47.378;8.300;2022-11-20T11:55:58;2.20;;;0.73;;
43986;SDS011;29650;47.378;8.300;2022-11-20T11:58:34;1.98;;;0.50;;
43986;SDS011;29650;47.378;8.300;2022-11-20T12:01:12;0.82;;;0.50;;
43986;SDS011;29650;47.378;8.300;2022-11-20T12:03:52;0.32;;;0.30;;
43986;SDS011;29650;47.378;8.300;2022-11-20T12:06:25;2.03;;;0.70;;
43986;SDS011;29650;47.378;8.300;2022-11-20T12:08:57;0.60;;;0.50;;
43986;SDS011;29650;47.378;8.300;2022-11-20T12:11:30;1.13;;;0.77;;
43986;SDS011;29650;47.378;8.300;2022-11-20T12:14:01;1.10;;;0.40;;
43986;SDS011;29650;47.378;8.300;2022-11-20T12:16:35;0.68;;;0.40;;
43986;SDS011;29650;47.378;8.300;2022-11-20T12:19:06;0.50;;;0.50;;
43986;SDS011;29650;47.378;8.300;2022-11-20T12:21:37;0.45;;;0.30;;
43986;SDS011;29650;47.378;8.300;2022-11-20T12:24:18;0.52;;;0.40;;
43986;SDS011;29650;47.378;8.300;2022-11-20T12:27:05;0.85;;;0.40;;
43986;SDS011;29650;47.378;8.300;2022-11-20T12:30:00;1.48;;;0.63;;
43986;SDS011;29650;47.378;8.300;2022-11-20T12:32:42;0.93;;;0.70;;
43986;SDS011;29650;47.378;8.300;2022-11-20T12:35:27;0.63;;;0.50;;
43986;SDS011;29650;47.378;8.300;2022-11-20T12:38:08;0.98;;;0.60;;
43986;SDS011;29650;47.378;8.300;2022-11-20T12:40:50;0.93;;;0.52;;
43986;SDS011;29650;47.378;8.300;2022-11-20T12:43:24;0.90;;;0.57;;
43986;SDS011;29650;47.378;8.300;2022-11-20T12:46:18;2.72;;;0.65;;
43986;SDS011;29650;47.378;8.300;2022-11-20T12:49:08;1.70;;;0.90;;
43986;SDS011;29650;47.378;8.300;2022-11-20T12:54:46;1.75;;;0.63;;
43986;SDS011;29650;47.378;8.300;2022-11-20T12:57:35;3.42;;;0.70;;
43986;SDS011;29650;47.378;8.300;2022-11-20T13:00:10;2.72;;;0.55;;
43986;SDS011;29650;47.378;8.300;2022-11-20T13:05:43;2.95;;;0.50;;
43986;SDS011;29650;47.378;8.300;2022-11-20T13:08:18;0.65;;;0.30;;
43986;SDS011;29650;47.378;8.300;2022-11-20T13:10:49;0.45;;;0.40;;
43986;SDS011;29650;47.378;8.300;2022-11-20T13:13:25;1.02;;;0.40;;
43986;SDS011;29650;47.378;8.300;2022-11-20T13:16:00;0.73;;;0.30;;
43986;SDS011;29650;47.378;8.300;2022-11-20T13:18:33;0.68;;;0.50;;
43986;SDS011;29650;47.378;8.300;2022-11-20T13:21:13;1.88;;;0.80;;
43986;SDS011;29650;47.378;8.300;2022-11-20T13:23:41;4.22;;;0.75;;
43986;SDS011;29650;47.378;8.300;2022-11-20T13:26:15;1.23;;;0.77;;
43986;SDS011;29650;47.378;8.300;2022-11-20T13:28:45;0.93;;;0.32;;
43986;SDS011;29650;47.378;8.300;2022-11-20T13:31:25;0.57;;;0.40;;
43986;SDS011;29650;47.378;8.300;2022-11-20T13:33:57;0.17;;;0.15;;
43986;SDS011;29650;47.378;8.300;2022-11-20T13:36:26;0.70;;;0.50;;
43986;SDS011;29650;47.378;8.300;2022-11-20T13:41:25;0.52;;;0.47;;
43986;SDS011;29650;47.378;8.300;2022-11-20T13:43:58;0.93;;;0.68;;
43986;SDS011;29650;47.378;8.300;2022-11-20T13:46:35;3.08;;;1.30;;
43986;SDS011;29650;47.378;8.300;2022-11-20T13:49:08;0.30;;;0.30;;
43986;SDS011;29650;47.378;8.300;2022-11-20T13:51:43;0.20;;;0.20;;
43986;SDS011;29650;47.378;8.300;2022-11-20T13:54:19;0.47;;;0.38;;
43986;SDS011;29650;47.378;8.300;2022-11-20T13:57:03;0.32;;;0.28;;
43986;SDS011;29650;47.378;8.300;2022-11-20T13:59:43;0.20;;;0.20;;
43986;SDS011;29650;47.378;8.300;2022-11-20T14:02:19;0.35;;;0.35;;
43986;SDS011;29650;47.378;8.300;2022-11-20T14:04:49;0.22;;;0.22;;
43986;SDS011;29650;47.378;8.300;2022-11-20T14:07:18;2.65;;;0.55;;
43986;SDS011;29650;47.378;8.300;2022-11-20T14:09:51;0.40;;;0.30;;
43986;SDS011;29650;47.378;8.300;2022-11-20T14:12:20;0.25;;;0.25;;
43986;SDS011;29650;47.378;8.300;2022-11-20T14:14:50;0.52;;;0.25;;
43986;SDS011;29650;47.378;8.300;2022-11-20T14:17:18;0.30;;;0.30;;
43986;SDS011;29650;47.378;8.300;2022-11-20T14:19:46;0.30;;;0.20;;
43986;SDS011;29650;47.378;8.300;2022-11-20T14:22:18;0.20;;;0.20;;
43986;SDS011;29650;47.378;8.300;2022-11-20T14:24:46;0.73;;;0.43;;
43986;SDS011;29650;47.378;8.300;2022-11-20T14:27:14;0.20;;;0.20;;
43986;SDS011;29650;47.378;8.300;2022-11-20T14:29:43;0.20;;;0.20;;
43986;SDS011;29650;47.378;8.300;2022-11-20T14:32:13;1.80;;;0.40;;
43986;SDS011;29650;47.378;8.300;2022-11-20T14:34:43;0.20;;;0.20;;
43986;SDS011;29650;47.378;8.300;2022-11-20T14:37:12;0.35;;;0.30;;
43986;SDS011;29650;47.378;8.300;2022-11-20T14:39:47;0.30;;;0.30;;
43986;SDS011;29650;47.378;8.300;2022-11-20T14:42:17;0.32;;;0.20;;
43986;SDS011;29650;47.378;8.300;2022-11-20T14:44:45;1.17;;;0.35;;
43986;SDS011;29650;47.378;8.300;2022-11-20T14:47:17;1.25;;;0.63;;
43986;SDS011;29650;47.378;8.300;2022-11-20T14:49:47;0.77;;;0.35;;
43986;SDS011;29650;47.378;8.300;2022-11-20T14:52:16;0.38;;;0.35;;
43986;SDS011;29650;47.378;8.300;2022-11-20T14:54:44;0.25;;;0.25;;
43986;SDS011;29650;47.378;8.300;2022-11-20T14:57:22;0.32;;;0.22;;
43986;SDS011;29650;47.378;8.300;2022-11-20T14:59:51;0.60;;;0.40;;
43986;SDS011;29650;47.378;8.300;2022-11-20T15:02:46;2.75;;;0.82;;
43986;SDS011;29650;47.378;8.300;2022-11-20T15:05:14;2.42;;;0.68;;
43986;SDS011;29650;47.378;8.300;2022-11-20T15:07:42;0.40;;;0.30;;
43986;SDS011;29650;47.378;8.300;2022-11-20T15:10:12;0.40;;;0.28;;
43986;SDS011;29650;47.378;8.300;2022-11-20T15:12:46;0.50;;;0.35;;
43986;SDS011;29650;47.378;8.300;2022-11-20T15:15:17;0.80;;;0.60;;
43986;SDS011;29650;47.378;8.300;2022-11-20T15:17:48;1.67;;;0.38;;
43986;SDS011;29650;47.378;8.300;2022-11-20T15:20:16;0.45;;;0.43;;